createdAt,value
2023-02-24T00:02:30.113Z,65.65
2023-02-24T00:05:05.664Z,58.15
2023-02-24T00:07:44.469Z,56.80
2023-02-24T00:10:21.723Z,54.03
2023-02-24T00:12:58.141Z,61.55
2023-02-24T00:15:35.995Z,69.30
2023-02-24T00:18:16.675Z,64.18
2023-02-24T00:20:58.096Z,60.80
2023-02-24T00:23:32.897Z,52.97
2023-02-24T00:26:11.324Z,57.35
2023-02-24T00:28:51.603Z,68.85
2023-02-24T00:31:27.488Z,58.83
2023-02-24T00:34:08.917Z,57.30
2023-02-24T00:36:46.195Z,66.00
2023-02-24T00:39:29.695Z,54.22
2023-02-24T00:42:07.637Z,53.35
2023-02-24T00:44:48.398Z,71.57
2023-02-24T00:47:21.189Z,60.80
2023-02-24T00:50:07.512Z,60.58
2023-02-24T00:52:45.916Z,60.03
2023-02-24T00:55:23.482Z,66.78
2023-02-24T00:58:10.895Z,58.90
2023-02-24T01:00:52.744Z,62.05
2023-02-24T01:03:28.573Z,64.57
2023-02-24T01:06:12.851Z,62.77
2023-02-24T01:08:50.101Z,59.38
2023-02-24T01:11:40.732Z,54.65
2023-02-24T01:14:18.848Z,57.65
2023-02-24T01:16:57.072Z,60.85
2023-02-24T01:19:35.890Z,60.60
2023-02-24T01:22:16.693Z,53.80
2023-02-24T01:24:52.260Z,51.40
2023-02-24T01:27:27.493Z,48.35
2023-02-24T01:32:38.074Z,65.05
2023-02-24T01:35:09.595Z,53.80
2023-02-24T01:37:51.932Z,56.93
2023-02-24T01:40:28.394Z,62.85
2023-02-24T01:43:03.777Z,56.50
2023-02-24T01:45:40.888Z,61.22
2023-02-24T01:48:19.870Z,57.17
2023-02-24T01:50:59.880Z,71.15
2023-02-24T01:53:39.684Z,67.28
2023-02-24T01:56:19.013Z,58.78
2023-02-24T01:58:57.521Z,65.25
2023-02-24T02:01:41.542Z,72.22
2023-02-24T02:04:21.203Z,73.22
2023-02-24T02:06:59.833Z,68.60
2023-02-24T02:09:42.665Z,63.88
2023-02-24T02:12:25.714Z,64.85
2023-02-24T02:15:03.113Z,57.28
2023-02-24T02:17:48.450Z,78.20
2023-02-24T02:20:43.601Z,79.28
2023-02-24T02:23:27.939Z,74.13
2023-02-24T02:26:36.524Z,80.43
2023-02-24T02:29:31.640Z,62.30
2023-02-24T02:32:22.259Z,58.80
2023-02-24T02:35:03.904Z,68.95
2023-02-24T02:37:39.858Z,64.82
2023-02-24T02:40:25.318Z,63.45
2023-02-24T02:43:02.212Z,73.18
2023-02-24T02:45:47.904Z,75.77
2023-02-24T02:48:27.034Z,67.03
2023-02-24T02:51:11.608Z,73.80
2023-02-24T02:53:53.927Z,73.28
2023-02-24T02:56:33.380Z,66.25
2023-02-24T02:59:13.137Z,73.72
2023-02-24T03:02:03.654Z,72.88
2023-02-24T03:04:39.955Z,80.00
2023-02-24T03:07:31.632Z,67.32
2023-02-24T03:10:17.867Z,63.95
2023-02-24T03:12:55.859Z,72.00
2023-02-24T03:15:45.195Z,76.20
2023-02-24T03:18:21.758Z,79.90
2023-02-24T03:21:05.605Z,75.60
2023-02-24T03:23:47.340Z,59.50
2023-02-24T03:26:24.338Z,72.70
2023-02-24T03:29:06.002Z,63.88
2023-02-24T03:31:44.820Z,79.13
2023-02-24T03:34:22.012Z,69.22
2023-02-24T03:36:57.868Z,52.70
2023-02-24T03:39:38.160Z,54.00
2023-02-24T03:42:23.733Z,86.70
2023-02-24T03:45:00.105Z,77.00
2023-02-24T03:47:39.266Z,67.80
2023-02-24T03:50:16.572Z,68.45
2023-02-24T03:52:55.447Z,72.22
2023-02-24T03:55:39.111Z,75.28
2023-02-24T03:58:20.296Z,67.85
2023-02-24T04:01:01.234Z,64.03
2023-02-24T04:03:40.228Z,86.20
2023-02-24T04:06:33.451Z,83.45
2023-02-24T04:09:17.008Z,76.47
2023-02-24T04:12:10.578Z,75.85
2023-02-24T04:14:58.097Z,74.30
2023-02-24T04:17:34.735Z,83.82
2023-02-24T04:20:23.420Z,81.60
2023-02-24T04:23:12.544Z,72.45
2023-02-24T04:25:55.889Z,75.25
2023-02-24T04:28:35.510Z,76.45
2023-02-24T04:31:24.281Z,71.90
2023-02-24T04:33:58.925Z,81.95
2023-02-24T04:36:41.969Z,86.88
2023-02-24T04:39:24.558Z,74.00
2023-02-24T04:42:07.511Z,70.50
2023-02-24T04:44:41.659Z,90.60
2023-02-24T04:47:25.529Z,73.35
2023-02-24T04:50:05.735Z,79.72
2023-02-24T04:52:48.036Z,89.18
2023-02-24T04:55:23.122Z,82.68
2023-02-24T04:58:00.961Z,85.85
2023-02-24T05:00:41.306Z,82.80
2023-02-24T05:03:22.134Z,81.45
2023-02-24T05:06:00.537Z,67.40
2023-02-24T05:08:38.922Z,76.32
2023-02-24T05:11:20.233Z,72.63
2023-02-24T05:13:58.365Z,67.57
2023-02-24T05:16:34.748Z,64.75
2023-02-24T05:19:29.776Z,74.17
2023-02-24T05:22:17.808Z,66.50
2023-02-24T05:24:58.798Z,70.10
2023-02-24T05:27:39.618Z,77.53
2023-02-24T05:30:18.678Z,74.05
2023-02-24T05:32:56.648Z,86.00
2023-02-24T05:35:40.024Z,85.30
2023-02-24T05:38:14.276Z,84.97
2023-02-24T05:40:57.987Z,87.90
2023-02-24T05:43:35.957Z,97.40
2023-02-24T05:46:20.867Z,77.20
2023-02-24T05:49:02.977Z,76.72
2023-02-24T05:51:55.163Z,98.83
2023-02-24T05:54:33.530Z,103.22
2023-02-24T05:57:14.020Z,73.93
2023-02-24T05:59:52.670Z,76.90
2023-02-24T06:02:39.211Z,68.60
2023-02-24T06:05:25.729Z,65.20
2023-02-24T06:08:18.146Z,60.70
2023-02-24T06:10:55.973Z,53.75
2023-02-24T06:13:32.776Z,46.58
2023-02-24T06:16:15.468Z,42.72
2023-02-24T06:18:53.700Z,43.20
2023-02-24T06:21:30.462Z,47.97
2023-02-24T06:24:22.872Z,46.70
2023-02-24T06:27:12.146Z,44.05
2023-02-24T06:29:51.104Z,48.05
2023-02-24T06:32:30.273Z,48.40
2023-02-24T06:38:15.161Z,57.30
2023-02-24T06:40:57.919Z,47.33
2023-02-24T06:43:37.252Z,54.20
2023-02-24T06:46:16.517Z,55.60
2023-02-24T06:48:52.122Z,47.60
2023-02-24T06:51:30.649Z,46.65
2023-02-24T06:54:08.001Z,47.63
2023-02-24T06:56:42.817Z,47.67
2023-02-24T06:59:28.860Z,51.30
2023-02-24T07:02:18.880Z,48.30
2023-02-24T07:04:59.284Z,45.57
2023-02-24T07:07:38.568Z,38.05
2023-02-24T07:10:16.845Z,29.83
2023-02-24T07:12:55.419Z,32.23
2023-02-24T07:15:59.092Z,29.73
2023-02-24T07:21:41.754Z,29.70
2023-02-24T07:24:37.052Z,33.53
2023-02-24T07:27:23.889Z,29.02
2023-02-24T07:30:29.132Z,31.13
2023-02-24T07:36:25.280Z,32.40
2023-02-24T07:39:06.475Z,32.78
2023-02-24T07:41:47.530Z,36.65
2023-02-24T07:44:26.333Z,35.58
2023-02-24T07:47:08.499Z,32.97
2023-02-24T07:49:51.472Z,35.00
2023-02-24T07:55:46.139Z,37.53
2023-02-24T07:58:28.825Z,40.00
2023-02-24T08:01:23.461Z,43.60
2023-02-24T08:04:12.767Z,50.33
2023-02-24T08:06:56.582Z,27.30
2023-02-24T08:09:48.260Z,27.55
2023-02-24T08:12:30.601Z,30.02
2023-02-24T08:15:32.720Z,31.90
2023-02-24T08:18:14.542Z,35.78
2023-02-24T08:21:06.367Z,30.63
2023-02-24T08:23:53.065Z,38.38
2023-02-24T08:26:32.316Z,29.30
2023-02-24T08:29:27.276Z,35.13
2023-02-24T08:32:04.250Z,36.55
2023-02-24T08:34:39.454Z,36.00
2023-02-24T08:37:17.821Z,35.33
2023-02-24T08:40:02.850Z,33.53
2023-02-24T08:42:47.379Z,34.00
2023-02-24T08:45:32.692Z,34.33
2023-02-24T08:48:19.540Z,30.88
2023-02-24T08:50:59.193Z,26.90
2023-02-24T08:53:35.955Z,27.95
2023-02-24T08:56:13.127Z,31.60
2023-02-24T09:01:40.494Z,29.48
2023-02-24T09:04:20.608Z,31.88
2023-02-24T09:07:11.282Z,34.40
2023-02-24T09:09:50.768Z,32.60
2023-02-24T09:12:29.974Z,32.75
2023-02-24T09:15:10.884Z,30.10
2023-02-24T09:18:11.338Z,32.28
2023-02-24T09:21:50.027Z,26.58
2023-02-24T09:24:27.307Z,27.38
2023-02-24T09:27:04.931Z,23.73
2023-02-24T09:29:49.614Z,23.08
2023-02-24T09:32:30.237Z,21.65
2023-02-24T09:35:05.775Z,26.60
2023-02-24T09:37:45.533Z,18.33
2023-02-24T09:40:40.037Z,19.70
2023-02-24T09:43:24.931Z,19.75
2023-02-24T09:46:15.062Z,16.40
2023-02-24T09:48:55.399Z,17.35
2023-02-24T09:51:42.720Z,17.45
2023-02-24T09:54:24.867Z,18.10
2023-02-24T09:57:08.814Z,15.82
2023-02-24T10:00:01.832Z,13.52
2023-02-24T10:02:45.334Z,14.63
2023-02-24T10:05:28.295Z,29.83
2023-02-24T10:08:08.774Z,23.75
2023-02-24T10:11:07.470Z,11.70
2023-02-24T10:13:50.660Z,15.73
2023-02-24T10:16:29.072Z,12.20
2023-02-24T10:19:15.567Z,14.57
2023-02-24T10:22:05.114Z,13.55
2023-02-24T10:24:54.587Z,10.50
2023-02-24T10:27:46.957Z,11.52
2023-02-24T10:30:34.890Z,12.15
2023-02-24T10:33:19.757Z,11.88
2023-02-24T10:36:11.520Z,9.85
2023-02-24T10:38:51.023Z,13.90
2023-02-24T10:41:38.486Z,11.57
2023-02-24T10:44:16.951Z,8.38
2023-02-24T10:47:11.974Z,12.10
2023-02-24T10:49:49.860Z,7.47
2023-02-24T10:52:37.655Z,9.57
2023-02-24T10:55:28.944Z,6.23
2023-02-24T10:58:16.263Z,8.55
2023-02-24T11:01:13.798Z,8.60
2023-02-24T11:04:07.159Z,7.95
2023-02-24T11:06:58.182Z,7.18
2023-02-24T11:09:57.735Z,8.00
2023-02-24T11:12:45.527Z,8.00
2023-02-24T11:15:33.197Z,8.63
2023-02-24T11:20:57.587Z,8.70
2023-02-24T11:23:38.461Z,8.68
2023-02-24T11:29:15.743Z,7.55
2023-02-24T11:32:23.616Z,7.57
2023-02-24T11:35:36.653Z,11.00
2023-02-24T11:38:28.447Z,7.55
2023-02-24T11:41:36.476Z,7.05
2023-02-24T11:44:21.714Z,6.15
2023-02-24T11:47:16.582Z,8.80
2023-02-24T11:49:54.228Z,5.85
2023-02-24T11:52:34.051Z,9.25
2023-02-24T11:55:22.958Z,10.65
2023-02-24T11:58:00.411Z,10.23
2023-02-24T12:00:37.686Z,12.40
2023-02-24T12:03:16.056Z,9.20
2023-02-24T12:06:00.588Z,11.75
2023-02-24T12:08:36.534Z,11.80
2023-02-24T12:11:14.502Z,12.77
2023-02-24T12:13:53.671Z,13.73
2023-02-24T12:16:33.563Z,12.50
2023-02-24T12:19:12.434Z,14.90
2023-02-24T12:22:03.408Z,13.40
2023-02-24T12:24:42.762Z,16.13
2023-02-24T12:27:20.945Z,12.93
2023-02-24T12:32:54.998Z,16.90
2023-02-24T12:35:37.217Z,14.40
2023-02-24T12:38:29.805Z,12.98
2023-02-24T12:41:04.674Z,16.27
2023-02-24T12:46:47.870Z,15.97
2023-02-24T12:52:33.989Z,9.40
2023-02-24T12:55:22.025Z,12.65
2023-02-24T12:58:02.294Z,12.00
2023-02-24T13:00:40.442Z,11.43
2023-02-24T13:03:29.472Z,9.05
2023-02-24T13:06:10.129Z,9.77
2023-02-24T13:08:52.413Z,9.38
2023-02-24T13:11:39.927Z,9.43
2023-02-24T13:14:20.689Z,15.70
2023-02-24T13:17:20.244Z,10.50
2023-02-24T13:19:56.221Z,10.30
2023-02-24T13:22:33.584Z,10.48
2023-02-24T13:25:27.836Z,9.07
2023-02-24T13:28:07.472Z,7.82
2023-02-24T13:30:45.094Z,7.20
2023-02-24T13:33:32.780Z,8.45
2023-02-24T13:36:40.085Z,10.97
2023-02-24T13:39:13.840Z,6.70
2023-02-24T13:41:48.681Z,5.27
2023-02-24T13:44:32.415Z,6.20
2023-02-24T13:47:47.355Z,7.35
2023-02-24T13:53:11.698Z,5.60
2023-02-24T13:55:54.982Z,5.80
2023-02-24T13:58:50.828Z,4.85
2023-02-24T14:01:29.676Z,3.97
2023-02-24T14:04:09.751Z,5.00
2023-02-24T14:06:51.429Z,8.45
2023-02-24T14:09:30.415Z,10.45
2023-02-24T14:15:02.652Z,9.80
2023-02-24T14:17:45.106Z,9.13
2023-02-24T14:20:24.208Z,13.07
2023-02-24T14:23:06.252Z,11.70
2023-02-24T14:25:44.040Z,9.00
2023-02-24T14:28:24.678Z,6.15
2023-02-24T14:31:04.106Z,8.32
2023-02-24T14:33:44.790Z,7.20
2023-02-24T14:36:21.721Z,9.75
2023-02-24T14:39:04.581Z,6.10
2023-02-24T14:41:42.164Z,6.60
2023-02-24T14:44:24.505Z,10.60
2023-02-24T14:47:02.695Z,4.38
2023-02-24T14:49:55.014Z,5.85
2023-02-24T14:55:26.747Z,5.55
2023-02-24T15:01:18.391Z,5.88
2023-02-24T15:03:56.518Z,6.00
2023-02-24T15:06:31.732Z,10.60
2023-02-24T15:09:14.903Z,7.05
2023-02-24T15:11:55.992Z,8.90
2023-02-24T15:14:32.778Z,7.80
2023-02-24T15:17:14.382Z,6.97
2023-02-24T15:19:54.845Z,8.80
2023-02-24T15:22:35.145Z,8.43
2023-02-24T15:25:28.033Z,10.00
2023-02-24T15:28:11.390Z,8.07
2023-02-24T15:30:57.610Z,8.57
2023-02-24T15:33:37.472Z,8.95
2023-02-24T15:36:18.368Z,5.70
2023-02-24T15:38:57.220Z,8.40
2023-02-24T15:41:46.559Z,13.18
2023-02-24T15:44:31.664Z,11.63
2023-02-24T15:47:23.384Z,9.90
2023-02-24T15:49:58.641Z,8.18
2023-02-24T15:52:35.931Z,9.00
2023-02-24T15:55:16.483Z,7.83
2023-02-24T15:58:02.104Z,6.17
2023-02-24T16:00:40.551Z,7.30
2023-02-24T16:03:18.884Z,8.60
2023-02-24T16:05:53.602Z,6.45
2023-02-24T16:08:32.947Z,9.75
2023-02-24T16:11:07.108Z,9.57
2023-02-24T16:13:51.685Z,8.03
2023-02-24T16:16:29.681Z,8.43
2023-02-24T16:19:11.424Z,5.90
2023-02-24T16:24:50.826Z,10.35
2023-02-24T16:30:04.903Z,11.02
2023-02-24T16:32:39.791Z,10.00
2023-02-24T16:35:15.364Z,7.70
2023-02-24T16:37:52.340Z,5.75
2023-02-24T16:40:28.374Z,8.07
2023-02-24T16:45:41.495Z,7.70
2023-02-24T16:48:15.824Z,9.80
2023-02-24T16:50:51.165Z,9.52
2023-02-24T16:53:26.340Z,5.80
2023-02-24T16:56:00.718Z,9.50
2023-02-24T16:58:35.726Z,9.60
2023-02-24T17:01:16.156Z,8.63
2023-02-24T17:03:52.155Z,12.93
2023-02-24T17:06:28.885Z,14.40
2023-02-24T17:09:04.406Z,14.57
2023-02-24T17:11:39.286Z,7.90
2023-02-24T17:14:17.906Z,14.57
2023-02-24T17:17:11.895Z,24.05
2023-02-24T17:19:47.958Z,17.83
2023-02-24T17:22:26.188Z,16.67
2023-02-24T17:24:59.942Z,14.00
2023-02-24T17:27:35.448Z,11.43
2023-02-24T17:30:12.821Z,10.65
2023-02-24T17:32:50.841Z,13.52
2023-02-24T17:35:25.872Z,14.25
2023-02-24T17:38:01.191Z,17.02
2023-02-24T17:40:38.557Z,12.55
2023-02-24T17:43:12.856Z,13.20
2023-02-24T17:45:52.034Z,11.95
2023-02-24T17:48:25.989Z,13.95
2023-02-24T17:51:04.124Z,15.65
2023-02-24T17:53:38.686Z,14.65
2023-02-24T17:56:13.951Z,17.33
2023-02-24T17:58:49.054Z,18.27
2023-02-24T18:01:25.735Z,15.57
2023-02-24T18:04:01.726Z,15.25
2023-02-24T18:06:40.893Z,18.65
2023-02-24T18:09:17.622Z,19.73
2023-02-24T18:11:57.773Z,20.83
2023-02-24T18:14:35.878Z,18.50
2023-02-24T18:17:12.175Z,17.92
2023-02-24T18:19:50.148Z,22.08
2023-02-24T18:22:30.854Z,14.85
2023-02-24T18:25:07.624Z,18.13
2023-02-24T18:27:47.227Z,19.13
2023-02-24T18:30:26.335Z,18.50
2023-02-24T18:33:04.951Z,21.05
2023-02-24T18:35:41.571Z,18.65
2023-02-24T18:38:25.289Z,22.58
2023-02-24T18:41:08.808Z,20.73
2023-02-24T18:43:45.194Z,22.35
2023-02-24T18:46:24.462Z,21.65
2023-02-24T18:49:00.643Z,21.65
2023-02-24T18:51:41.224Z,22.77
2023-02-24T18:54:15.909Z,25.85
2023-02-24T18:56:57.522Z,23.25
2023-02-24T18:59:36.479Z,25.10
2023-02-24T19:02:14.815Z,22.00
2023-02-24T19:04:51.642Z,23.00
2023-02-24T19:07:27.980Z,23.00
2023-02-24T19:10:05.495Z,22.02
2023-02-24T19:12:48.748Z,22.90
2023-02-24T19:15:31.066Z,21.87
2023-02-24T19:18:07.785Z,20.00
2023-02-24T19:23:50.790Z,20.98
2023-02-24T19:26:36.261Z,22.20
2023-02-24T19:29:18.132Z,18.00
2023-02-24T19:32:00.670Z,22.55
2023-02-24T19:34:38.701Z,29.60
2023-02-24T19:37:18.025Z,19.55
2023-02-24T19:40:00.582Z,16.98
2023-02-24T19:42:39.057Z,18.40
2023-02-24T19:45:23.016Z,20.65
2023-02-24T19:48:01.899Z,19.58
2023-02-24T19:50:43.930Z,17.70
2023-02-24T19:53:23.394Z,17.15
2023-02-24T19:56:07.071Z,19.65
2023-02-24T19:58:53.662Z,17.42
2023-02-24T20:04:23.793Z,15.88
2023-02-24T20:07:03.169Z,15.30
2023-02-24T20:09:47.784Z,18.17
2023-02-24T20:12:29.510Z,15.70
2023-02-24T20:15:11.218Z,17.17
2023-02-24T20:17:51.069Z,15.07
2023-02-24T20:20:32.880Z,17.00
2023-02-24T20:23:14.780Z,18.70
2023-02-24T20:25:49.114Z,18.35
2023-02-24T20:28:28.819Z,18.58
2023-02-24T20:31:14.627Z,16.98
2023-02-24T20:33:58.984Z,16.48
2023-02-24T20:36:44.328Z,18.20
2023-02-24T20:39:25.685Z,19.92
2023-02-24T20:42:06.624Z,22.42
2023-02-24T20:44:49.671Z,23.08
2023-02-24T20:47:27.063Z,18.35
2023-02-24T20:50:03.769Z,22.38
2023-02-24T20:52:51.438Z,17.83
2023-02-24T20:55:29.859Z,19.33
2023-02-24T20:58:08.908Z,21.70
2023-02-24T21:00:51.113Z,20.80
2023-02-24T21:03:28.373Z,18.50
2023-02-24T21:06:10.203Z,25.23
2023-02-24T21:08:51.813Z,23.73
2023-02-24T21:11:30.201Z,20.03
2023-02-24T21:14:08.266Z,21.23
2023-02-24T21:16:46.552Z,18.48
2023-02-24T21:19:26.762Z,19.63
2023-02-24T21:22:03.614Z,18.88
2023-02-24T21:24:48.963Z,19.90
2023-02-24T21:27:28.114Z,19.63
2023-02-24T21:30:07.067Z,17.55
2023-02-24T21:32:44.330Z,17.75
2023-02-24T21:35:23.994Z,16.60
2023-02-24T21:38:03.126Z,16.75
2023-02-24T21:40:47.796Z,18.10
2023-02-24T21:43:27.243Z,17.13
2023-02-24T21:46:07.189Z,13.95
2023-02-24T21:48:43.635Z,15.77
2023-02-24T21:51:19.743Z,14.02
2023-02-24T21:53:58.451Z,11.15
2023-02-24T21:56:38.591Z,12.20
2023-02-24T21:59:18.101Z,10.90
2023-02-24T22:01:54.539Z,12.13
2023-02-24T22:04:39.768Z,11.27
2023-02-24T22:07:16.095Z,10.10
2023-02-24T22:09:56.156Z,12.13
2023-02-24T22:12:40.180Z,14.05
2023-02-24T22:15:18.065Z,14.70
2023-02-24T22:17:56.524Z,12.80
2023-02-24T22:20:34.792Z,15.75
2023-02-24T22:23:12.130Z,13.20
2023-02-24T22:25:50.960Z,16.60
2023-02-24T22:28:31.432Z,16.17
2023-02-24T22:31:09.717Z,18.42
2023-02-24T22:33:46.439Z,13.95
2023-02-24T22:36:25.001Z,12.57
2023-02-24T22:39:04.248Z,12.27
2023-02-24T22:41:41.484Z,10.23
2023-02-24T22:44:23.915Z,9.52
2023-02-24T22:46:58.563Z,12.13
2023-02-24T22:49:34.843Z,9.02
2023-02-24T22:52:17.502Z,7.25
2023-02-24T22:54:49.718Z,7.28
2023-02-24T22:57:29.619Z,8.63
2023-02-24T23:00:20.811Z,10.25
2023-02-24T23:02:56.902Z,9.30
2023-02-24T23:08:10.913Z,8.30
2023-02-24T23:10:48.951Z,8.18
2023-02-24T23:13:26.585Z,7.35
2023-02-24T23:16:11.297Z,7.80
2023-02-24T23:18:51.570Z,5.78
2023-02-24T23:21:37.324Z,6.30
2023-02-24T23:24:14.705Z,8.30
2023-02-24T23:26:52.517Z,6.68
2023-02-24T23:29:33.730Z,6.32
2023-02-24T23:32:14.690Z,5.32
2023-02-24T23:34:55.157Z,5.47
2023-02-24T23:37:36.047Z,6.18
2023-02-24T23:40:17.853Z,7.07
2023-02-24T23:42:55.298Z,6.28
2023-02-24T23:45:32.959Z,6.88
2023-02-24T23:48:14.951Z,6.78
2023-02-24T23:50:57.267Z,7.68
2023-02-24T23:53:33.828Z,6.97
2023-02-24T23:56:12.620Z,5.05
2023-02-24T23:58:49.322Z,7.72
